createdAt,value
2023-05-21T04:14:38.491Z,1.50
2023-05-21T04:15:38.844Z,1.60
2023-05-21T04:16:38.865Z,1.80
2023-05-21T04:17:38.913Z,1.60
2023-05-21T04:18:39.018Z,1.80
2023-05-21T04:19:39.186Z,1.80
2023-05-21T04:20:39.245Z,1.70
2023-05-21T04:21:39.451Z,1.70
2023-05-21T04:22:39.500Z,1.80
2023-05-21T04:23:39.652Z,1.80
2023-05-21T04:24:39.834Z,1.80
2023-05-21T04:25:39.922Z,1.60
2023-05-21T04:26:40.097Z,1.60
2023-05-21T04:27:40.223Z,1.80
2023-05-21T04:28:40.346Z,1.80
2023-05-21T04:29:40.515Z,1.70
2023-05-21T04:30:40.636Z,1.70
2023-05-21T04:31:40.800Z,1.70
2023-05-21T04:32:40.912Z,1.60
2023-05-21T04:33:41.047Z,1.60
2023-05-21T04:34:41.154Z,1.80
2023-05-21T04:35:41.270Z,1.70
2023-05-21T04:36:41.375Z,1.80
2023-05-21T04:37:41.502Z,1.50
2023-05-21T04:38:41.652Z,1.80
2023-05-21T04:39:41.762Z,1.80
2023-05-21T04:40:41.918Z,1.70
2023-05-21T04:41:42.015Z,1.60
2023-05-21T04:42:42.097Z,1.70
2023-05-21T04:43:42.240Z,1.80
2023-05-21T04:44:42.377Z,1.80
2023-05-21T04:45:42.519Z,1.80
2023-05-21T04:46:42.721Z,1.80
2023-05-21T04:47:42.831Z,1.90
2023-05-21T04:48:42.880Z,1.80
2023-05-21T04:49:43.008Z,1.60
2023-05-21T04:50:43.168Z,2.00
2023-05-21T04:51:43.246Z,2.20
2023-05-21T04:52:43.386Z,1.80
2023-05-21T04:53:43.494Z,1.50
2023-05-21T04:54:43.594Z,1.70
2023-05-21T04:55:43.724Z,1.70
2023-05-21T04:56:43.872Z,1.70
2023-05-21T04:57:44.002Z,1.70
2023-05-21T04:58:44.134Z,1.90
2023-05-21T04:59:44.309Z,1.60
2023-05-21T05:00:44.388Z,1.80
2023-05-21T05:01:44.505Z,1.70
2023-05-21T05:02:44.753Z,1.70
2023-05-21T05:03:44.772Z,1.70
2023-05-21T05:04:44.865Z,1.80
2023-05-21T05:05:44.959Z,1.80
2023-05-21T05:06:45.091Z,1.80
2023-05-21T05:07:45.274Z,1.80
2023-05-21T05:08:45.343Z,1.90
2023-05-21T05:09:45.493Z,2.00
2023-05-21T05:10:45.590Z,1.70
2023-05-21T05:11:45.727Z,1.70
2023-05-21T05:12:45.910Z,1.60
2023-05-21T05:13:45.986Z,1.90
2023-05-21T05:14:46.120Z,1.90
2023-05-21T05:15:47.538Z,1.90
2023-05-21T05:16:46.373Z,1.80
2023-05-21T05:17:46.474Z,1.60
2023-05-21T05:18:46.555Z,1.80
2023-05-21T05:19:46.698Z,1.90
2023-05-21T05:20:46.791Z,1.80
2023-05-21T05:21:46.897Z,1.60
2023-05-21T05:22:47.028Z,1.60
2023-05-21T05:23:47.115Z,1.60
2023-05-21T05:24:47.236Z,1.80
2023-05-21T05:25:47.344Z,1.70
2023-05-21T05:26:47.501Z,2.00
2023-05-21T05:27:47.615Z,1.60
2023-05-21T05:28:47.710Z,1.80
2023-05-21T05:29:47.814Z,1.70
2023-05-21T05:30:48.024Z,1.80
2023-05-21T05:31:48.106Z,1.60
2023-05-21T05:32:48.229Z,1.70
2023-05-21T05:33:48.304Z,1.50
2023-05-21T05:34:48.510Z,1.80
2023-05-21T05:35:48.542Z,1.70
2023-05-21T05:36:48.696Z,1.60
2023-05-21T05:37:48.803Z,1.80
2023-05-21T05:38:48.925Z,1.70
2023-05-21T05:39:49.088Z,1.60
2023-05-21T05:40:49.173Z,1.60
2023-05-21T05:41:49.309Z,1.80
2023-05-21T05:42:49.482Z,1.80
2023-05-21T05:43:49.562Z,1.60
2023-05-21T05:44:49.713Z,1.80
2023-05-21T05:45:49.889Z,1.60
2023-05-21T05:46:49.937Z,1.60
2023-05-21T05:47:50.121Z,1.90
2023-05-21T05:48:50.186Z,1.90
2023-05-21T05:49:50.309Z,1.60
2023-05-21T05:50:50.494Z,1.60
2023-05-21T05:51:50.610Z,1.70
2023-05-21T05:52:50.714Z,1.80
2023-05-21T05:53:50.881Z,1.80
2023-05-21T05:54:51.025Z,1.70
2023-05-21T05:55:51.128Z,1.60
2023-05-21T05:56:51.317Z,1.60
2023-05-21T05:57:51.428Z,1.80
2023-05-21T05:58:51.511Z,1.60
2023-05-21T05:59:51.660Z,1.80
2023-05-21T06:00:51.848Z,1.70
2023-05-21T06:01:51.980Z,1.50
2023-05-21T06:02:52.184Z,1.80
2023-05-21T06:03:52.300Z,1.70
2023-05-21T06:04:52.291Z,1.70
2023-05-21T06:05:52.480Z,1.70
2023-05-21T06:06:52.562Z,1.60
2023-05-21T06:07:52.716Z,1.70
2023-05-21T06:08:52.864Z,1.60
2023-05-21T06:09:53.060Z,1.90
2023-05-21T06:10:53.166Z,1.70
2023-05-21T06:11:53.313Z,1.70
2023-05-21T06:12:53.435Z,1.70
2023-05-21T06:13:54.517Z,1.80
2023-05-21T06:14:53.655Z,1.70
2023-05-21T06:15:53.862Z,1.70
2023-05-21T06:16:53.920Z,1.80
2023-05-21T06:17:54.194Z,1.50
2023-05-21T06:18:54.180Z,1.70
2023-05-21T06:19:54.352Z,1.70
2023-05-21T06:20:54.430Z,1.80
2023-05-21T06:21:54.556Z,1.90
2023-05-21T06:22:54.712Z,1.80
2023-05-21T06:23:54.819Z,1.80
2023-05-21T06:24:54.940Z,1.60
2023-05-21T06:25:55.099Z,1.70
2023-05-21T06:26:55.188Z,1.50
2023-05-21T06:27:55.311Z,1.50
2023-05-21T06:28:55.434Z,1.70
2023-05-21T06:29:55.518Z,1.70
2023-05-21T06:30:55.648Z,1.70
2023-05-21T06:31:55.805Z,1.70
2023-05-21T06:32:55.965Z,1.50
2023-05-21T06:33:56.077Z,1.70
2023-05-21T06:34:56.167Z,1.90
2023-05-21T06:35:56.338Z,1.70
2023-05-21T06:36:56.489Z,1.70
2023-05-21T06:37:56.619Z,1.80
2023-05-21T06:38:56.735Z,1.80
2023-05-21T06:39:56.904Z,1.50
2023-05-21T06:40:56.974Z,1.60
2023-05-21T06:41:57.108Z,1.70
2023-05-21T06:42:57.218Z,1.90
2023-05-21T06:43:57.375Z,1.70
2023-05-21T06:44:57.517Z,1.70
2023-05-21T06:45:57.738Z,1.80
2023-05-21T06:46:57.791Z,1.70
2023-05-21T06:47:57.991Z,1.80
2023-05-21T06:48:58.028Z,1.90
2023-05-21T06:49:58.169Z,1.80
2023-05-21T06:50:58.294Z,1.50
2023-05-21T06:51:58.430Z,1.60
2023-05-21T06:52:58.572Z,1.70
2023-05-21T06:53:58.691Z,1.60
2023-05-21T06:54:58.818Z,1.70
2023-05-21T06:55:58.973Z,1.70
2023-05-21T06:56:59.088Z,1.70
2023-05-21T06:57:59.183Z,1.80
2023-05-21T06:58:59.269Z,1.60
2023-05-21T06:59:59.401Z,1.70
2023-05-21T07:00:59.584Z,1.70
2023-05-21T07:01:59.693Z,1.60
2023-05-21T07:02:59.892Z,1.90
2023-05-21T07:03:59.890Z,1.80
2023-05-21T07:05:00.005Z,1.50
2023-05-21T07:06:00.159Z,1.80
2023-05-21T07:07:00.266Z,1.70
2023-05-21T07:08:00.418Z,1.60
2023-05-21T07:09:00.545Z,1.80
2023-05-21T07:10:00.654Z,1.50
2023-05-21T07:11:00.801Z,1.60
2023-05-21T07:12:00.961Z,1.50
2023-05-21T07:13:01.242Z,1.70
2023-05-21T07:15:16.774Z,1.70
2023-05-21T07:16:16.896Z,1.80
2023-05-21T07:17:17.017Z,1.70
2023-05-21T07:18:17.167Z,1.60
2023-05-21T07:19:17.388Z,1.70
2023-05-21T07:20:17.405Z,1.60
2023-05-21T07:21:17.522Z,1.70
2023-05-21T07:22:17.690Z,1.70
2023-05-21T07:23:17.778Z,1.60
2023-05-21T07:24:17.907Z,1.80
2023-05-21T07:25:18.017Z,1.70
2023-05-21T07:26:18.161Z,1.70
2023-05-21T07:28:19.417Z,1.90
2023-05-21T07:29:18.575Z,1.90
2023-05-21T07:30:18.662Z,1.90
2023-05-21T07:31:18.849Z,1.90
2023-05-21T07:32:18.917Z,1.80
2023-05-21T07:33:19.043Z,1.80
2023-05-21T07:34:19.181Z,1.80
2023-05-21T07:35:19.323Z,1.60
2023-05-21T07:36:19.424Z,1.90
2023-05-21T07:37:19.601Z,1.50
2023-05-21T07:38:19.663Z,2.00
2023-05-21T07:39:19.823Z,1.50
2023-05-21T07:40:19.901Z,1.80
2023-05-21T07:41:20.039Z,1.70
2023-05-21T07:42:20.117Z,1.80
2023-05-21T07:43:20.259Z,1.60
2023-05-21T07:44:20.381Z,1.70
2023-05-21T07:45:20.477Z,1.60
2023-05-21T07:46:20.643Z,1.70
2023-05-21T07:47:21.768Z,1.70
2023-05-21T07:48:20.863Z,1.80
2023-05-21T07:49:20.988Z,1.70
2023-05-21T07:50:21.125Z,1.60
2023-05-21T07:51:21.256Z,1.50
2023-05-21T07:52:21.393Z,1.70
2023-05-21T07:53:21.531Z,1.60
2023-05-21T07:54:21.617Z,1.80
2023-05-21T07:55:21.744Z,1.80
2023-05-21T07:56:21.877Z,1.60
2023-05-21T07:57:21.991Z,1.80
2023-05-21T07:58:22.127Z,1.70
2023-05-21T07:59:22.235Z,1.60
2023-05-21T08:00:22.357Z,1.90
2023-05-21T08:01:22.495Z,1.60
2023-05-21T08:02:22.747Z,1.90
2023-05-21T08:03:22.910Z,1.70
2023-05-21T08:04:23.135Z,1.60
2023-05-21T08:05:23.027Z,1.70
2023-05-21T08:06:23.151Z,1.70
2023-05-21T08:07:23.311Z,1.70
2023-05-21T08:08:23.420Z,1.60
2023-05-21T08:09:23.512Z,1.60
2023-05-21T08:10:23.670Z,1.50
2023-05-21T08:11:23.787Z,1.60
2023-05-21T08:12:23.906Z,1.70
2023-05-21T08:13:24.041Z,1.70
2023-05-21T08:14:24.129Z,1.70
2023-05-21T08:15:24.258Z,1.90
2023-05-21T08:16:24.408Z,1.70
2023-05-21T08:17:24.570Z,1.80
2023-05-21T08:18:24.653Z,1.60
2023-05-21T08:19:24.867Z,1.80
2023-05-21T08:20:24.885Z,1.80
2023-05-21T08:21:25.014Z,1.90
2023-05-21T08:22:25.130Z,1.70
2023-05-21T08:23:25.262Z,1.60
2023-05-21T08:24:25.412Z,1.70
2023-05-21T08:25:25.543Z,1.70
2023-05-21T08:26:25.673Z,1.90
2023-05-21T08:27:25.835Z,1.80
2023-05-21T08:28:25.952Z,1.70
2023-05-21T08:29:26.116Z,1.50
2023-05-21T08:30:26.236Z,1.70
2023-05-21T08:31:26.430Z,1.60
2023-05-21T08:32:26.540Z,1.60
2023-05-21T08:33:26.636Z,1.60
2023-05-21T08:34:26.806Z,1.90
2023-05-21T08:35:26.908Z,1.80
2023-05-21T08:36:27.029Z,1.50
2023-05-21T08:37:27.189Z,1.60
2023-05-21T08:38:29.508Z,1.90
2023-05-21T08:39:27.438Z,1.60
2023-05-21T08:40:27.524Z,1.70
2023-05-21T08:41:27.642Z,1.70
2023-05-21T08:42:36.227Z,1.50
2023-05-21T08:43:28.909Z,1.60
2023-05-21T08:44:28.004Z,1.80
2023-05-21T08:45:28.211Z,1.60
2023-05-21T08:46:28.316Z,2.00
2023-05-21T08:47:28.431Z,1.80
2023-05-21T08:48:28.566Z,1.50
2023-05-21T08:49:28.710Z,1.80
2023-05-21T08:50:28.870Z,1.80
2023-05-21T08:51:28.962Z,1.70
2023-05-21T08:52:29.103Z,1.80
2023-05-21T08:53:29.454Z,1.70
2023-05-21T08:54:29.370Z,1.70
2023-05-21T08:55:29.528Z,1.60
2023-05-21T08:56:29.605Z,1.80
2023-05-21T08:57:29.750Z,1.80
2023-05-21T08:58:29.872Z,1.80
2023-05-21T08:59:30.002Z,1.70
2023-05-21T09:00:30.115Z,1.80
2023-05-21T09:01:30.314Z,1.70
2023-05-21T09:02:30.485Z,1.80
2023-05-21T09:03:30.664Z,1.60
2023-05-21T09:04:30.921Z,1.60
2023-05-21T09:05:30.829Z,1.60
2023-05-21T09:06:30.937Z,1.70
2023-05-21T09:07:31.091Z,2.00
2023-05-21T09:08:31.223Z,1.70
2023-05-21T09:09:31.330Z,1.60
2023-05-21T09:10:31.475Z,2.00
2023-05-21T09:11:31.622Z,1.70
2023-05-21T09:12:31.747Z,1.80
2023-05-21T09:13:31.893Z,1.60
2023-05-21T09:14:32.018Z,1.90
2023-05-21T09:15:32.155Z,1.70
2023-05-21T09:16:32.330Z,1.70
2023-05-21T09:17:32.468Z,1.90
2023-05-21T09:18:32.571Z,1.80
2023-05-21T09:19:32.793Z,1.80
2023-05-21T09:20:32.876Z,1.80
2023-05-21T09:21:33.012Z,1.80
2023-05-21T09:22:33.136Z,2.00
2023-05-21T09:23:33.244Z,1.80
2023-05-21T09:24:36.083Z,1.90
2023-05-21T09:25:33.491Z,1.70
2023-05-21T09:26:33.623Z,1.90
2023-05-21T09:27:33.741Z,1.90
2023-05-21T09:28:33.864Z,2.00
2023-05-21T09:29:34.109Z,1.80
2023-05-21T09:30:35.951Z,1.90
2023-05-21T09:31:34.265Z,2.00
2023-05-21T09:32:34.369Z,1.90
2023-05-21T09:33:34.492Z,1.90
2023-05-21T09:34:34.614Z,1.70
2023-05-21T09:35:36.158Z,1.90
2023-05-21T09:36:34.843Z,1.80
2023-05-21T09:37:34.994Z,2.00
2023-05-21T09:38:35.105Z,1.80
2023-05-21T09:39:35.307Z,1.90
2023-05-21T09:40:35.674Z,1.90
2023-05-21T09:41:35.477Z,1.90
2023-05-21T09:42:35.610Z,1.90
2023-05-21T09:43:35.744Z,1.90
2023-05-21T09:44:35.898Z,1.80
2023-05-21T09:45:36.266Z,1.90
2023-05-21T09:46:36.142Z,1.90
2023-05-21T09:47:36.306Z,2.50
2023-05-21T09:48:36.415Z,2.00
2023-05-21T09:49:36.512Z,2.10
2023-05-21T09:50:36.856Z,1.90
2023-05-21T09:51:36.805Z,1.90
2023-05-21T09:52:36.939Z,2.00
2023-05-21T09:53:37.122Z,2.20
2023-05-21T09:54:37.193Z,2.10
2023-05-21T09:55:37.349Z,2.20
2023-05-21T09:56:37.409Z,2.00
2023-05-21T09:57:37.550Z,2.40
2023-05-21T09:58:37.681Z,2.10
2023-05-21T09:59:37.801Z,2.10
2023-05-21T10:00:38.042Z,2.20
2023-05-21T10:01:38.115Z,2.80
2023-05-21T10:02:38.241Z,2.20
2023-05-21T10:03:38.380Z,2.30
2023-05-21T10:04:38.657Z,2.20
2023-05-21T10:05:38.660Z,2.20
2023-05-21T10:06:38.799Z,2.50
2023-05-21T10:07:38.947Z,2.30
2023-05-21T10:08:39.077Z,2.50
2023-05-21T10:09:39.202Z,2.10
2023-05-21T10:10:39.305Z,2.30
2023-05-21T10:11:39.462Z,2.50
2023-05-21T10:12:39.579Z,2.40
2023-05-21T10:13:39.710Z,2.30
2023-05-21T10:14:39.830Z,2.40
2023-05-21T10:15:39.959Z,2.40
2023-05-21T10:16:40.148Z,2.40
2023-05-21T10:17:40.187Z,2.20
2023-05-21T10:28:58.928Z,2.60
2023-05-21T10:29:59.020Z,2.50
2023-05-21T10:30:59.148Z,2.50
2023-05-21T10:31:59.327Z,2.60
2023-05-21T10:32:59.536Z,2.20
2023-05-21T10:33:59.557Z,2.70
2023-05-21T10:35:01.521Z,2.50
2023-05-21T10:35:59.798Z,2.80
2023-05-21T10:36:59.892Z,2.70
2023-05-21T10:37:59.994Z,2.90
2023-05-21T10:39:00.224Z,2.70
2023-05-21T10:40:00.270Z,2.70
2023-05-21T10:41:00.371Z,2.60
2023-05-21T10:42:00.530Z,2.80
2023-05-21T10:43:00.609Z,2.90
2023-05-21T10:44:00.727Z,2.70
2023-05-21T10:45:00.915Z,2.90
2023-05-21T10:46:01.033Z,2.60
2023-05-21T10:47:01.085Z,2.80
2023-05-21T10:48:01.227Z,2.70
2023-05-21T10:49:01.341Z,2.90
2023-05-21T10:50:01.484Z,3.20
2023-05-21T10:51:01.614Z,2.90
2023-05-21T10:52:01.740Z,2.70
2023-05-21T10:53:01.851Z,2.80
2023-05-21T10:54:01.971Z,3.00
2023-05-21T10:55:02.106Z,3.20
2023-05-21T10:56:02.222Z,2.90
2023-05-21T10:57:02.367Z,2.70
2023-05-21T10:58:02.491Z,2.90
2023-05-21T10:59:02.626Z,3.10
2023-05-21T11:00:02.765Z,3.00
2023-05-21T11:01:02.874Z,2.90
2023-05-21T11:02:02.994Z,3.00
2023-05-21T11:03:03.245Z,3.10
2023-05-21T11:04:03.261Z,3.00
2023-05-21T11:05:03.395Z,3.20
2023-05-21T11:06:03.526Z,3.20
2023-05-21T11:07:03.654Z,3.00
2023-05-21T11:08:03.780Z,2.80
2023-05-21T11:09:03.934Z,3.10
2023-05-21T11:10:04.059Z,3.10
2023-05-21T11:11:04.189Z,3.40
2023-05-21T11:12:04.315Z,3.40
2023-05-21T11:13:04.455Z,3.10
2023-05-21T11:14:04.580Z,3.40
2023-05-21T11:15:04.692Z,3.40
2023-05-21T11:16:04.809Z,3.20
2023-05-21T11:17:05.080Z,3.40
2023-05-21T11:18:05.072Z,3.60
2023-05-21T11:19:05.216Z,3.30
2023-05-21T11:20:05.265Z,3.30
2023-05-21T11:21:05.399Z,3.40
2023-05-21T11:22:05.534Z,3.40
2023-05-21T11:23:05.637Z,3.30
2023-05-21T11:24:05.812Z,3.40
2023-05-21T11:25:05.917Z,3.30
2023-05-21T11:26:06.058Z,3.80
2023-05-21T11:27:06.173Z,3.60
2023-05-21T11:28:06.322Z,3.50
2023-05-21T11:29:06.462Z,3.50
2023-05-21T11:30:06.601Z,3.70
2023-05-21T11:31:06.761Z,3.40
2023-05-21T11:32:06.865Z,3.50
2023-05-21T11:33:07.021Z,3.50
2023-05-21T11:34:07.124Z,3.20
2023-05-21T11:35:07.259Z,3.60
2023-05-21T11:36:07.360Z,3.70
2023-05-21T11:37:07.469Z,3.50
2023-05-21T11:38:07.588Z,3.60
2023-05-21T11:39:07.704Z,3.80
2023-05-21T11:40:07.875Z,3.50
2023-05-21T11:41:07.951Z,3.70
2023-05-21T11:42:08.062Z,3.80
2023-05-21T11:43:08.178Z,4.20
2023-05-21T11:44:08.311Z,3.90
2023-05-21T11:45:08.431Z,3.90
2023-05-21T11:46:08.598Z,4.10
2023-05-21T11:47:08.707Z,3.80
2023-05-21T11:48:08.869Z,4.00
2023-05-21T11:49:08.977Z,3.80
2023-05-21T11:50:09.079Z,3.90
2023-05-21T11:51:09.205Z,4.00
2023-05-21T11:52:09.350Z,3.90
2023-05-21T11:53:09.456Z,4.00
2023-05-21T11:54:09.578Z,3.90
2023-05-21T11:55:09.678Z,4.30
2023-05-21T11:56:09.882Z,4.00
2023-05-21T11:57:09.987Z,3.70
2023-05-21T11:58:10.072Z,4.20
2023-05-21T11:59:10.199Z,4.30
2023-05-21T12:00:10.374Z,4.20
2023-05-21T12:01:10.504Z,4.10
2023-05-21T12:02:11.328Z,4.20
2023-05-21T12:03:10.752Z,4.30
2023-05-21T12:04:10.871Z,4.10
2023-05-21T12:05:13.063Z,4.00
2023-05-21T12:06:11.192Z,4.50
2023-05-21T12:07:11.199Z,4.40
2023-05-21T12:08:11.307Z,4.30
2023-05-21T12:09:11.448Z,4.10
2023-05-21T12:10:11.602Z,4.30
2023-05-21T12:11:11.721Z,4.40
2023-05-21T12:12:11.848Z,4.10
2023-05-21T12:13:11.957Z,4.30
2023-05-21T12:14:12.145Z,4.30
2023-05-21T12:15:12.224Z,4.20
2023-05-21T12:16:12.389Z,4.60
2023-05-21T12:17:12.491Z,4.60
2023-05-21T12:18:12.704Z,4.60
2023-05-21T12:19:12.820Z,4.50
2023-05-21T12:20:12.981Z,4.40
2023-05-21T12:21:13.138Z,4.40
2023-05-21T12:22:13.270Z,4.60
2023-05-21T12:23:13.463Z,4.40
2023-05-21T12:24:13.595Z,4.50
2023-05-21T12:25:13.733Z,4.80
2023-05-21T12:26:13.890Z,4.70
2023-05-21T12:27:14.025Z,4.30
2023-05-21T12:28:14.109Z,4.60
2023-05-21T12:29:14.255Z,4.50
2023-05-21T12:30:14.422Z,4.70
2023-05-21T12:31:14.589Z,4.80
2023-05-21T12:32:14.736Z,4.60
2023-05-21T12:33:14.846Z,4.60
2023-05-21T12:34:15.001Z,4.50
2023-05-21T12:35:15.170Z,4.90
2023-05-21T12:36:15.268Z,4.70
2023-05-21T12:37:15.430Z,4.90
2023-05-21T12:38:15.558Z,5.00
2023-05-21T12:39:15.719Z,5.30
2023-05-21T12:40:15.859Z,5.20
2023-05-21T12:41:15.970Z,4.90
2023-05-21T12:42:16.127Z,4.80
2023-05-21T12:43:16.236Z,5.00
2023-05-21T12:44:16.343Z,4.70
2023-05-21T12:45:16.490Z,4.90
2023-05-21T12:46:16.665Z,4.80
2023-05-21T12:47:16.734Z,5.00
2023-05-21T12:48:16.935Z,5.30
2023-05-21T12:49:17.032Z,5.10
2023-05-21T12:50:17.145Z,5.00
2023-05-21T12:51:17.313Z,5.20
2023-05-21T12:52:17.466Z,5.10
2023-05-21T12:53:17.570Z,5.00
2023-05-21T12:54:17.744Z,5.20
2023-05-21T12:55:17.850Z,5.00
2023-05-21T12:56:17.960Z,5.10
2023-05-21T12:57:18.110Z,5.00
2023-05-21T12:58:18.214Z,5.00
2023-05-21T12:59:18.382Z,5.30
2023-05-21T13:00:18.503Z,5.60
2023-05-21T13:01:18.687Z,5.50
2023-05-21T13:02:18.767Z,5.50
2023-05-21T13:03:19.009Z,5.30
2023-05-21T13:04:19.154Z,5.20
2023-05-21T13:05:19.225Z,5.20
2023-05-21T13:06:19.331Z,5.50
2023-05-21T13:07:19.476Z,5.50
2023-05-21T13:08:19.613Z,5.20
2023-05-21T13:09:19.689Z,5.30
2023-05-21T13:10:19.834Z,5.40
2023-05-21T13:11:19.956Z,6.00
2023-05-21T13:12:20.058Z,5.60
2023-05-21T13:13:20.161Z,5.60
2023-05-21T13:14:20.269Z,5.80
2023-05-21T13:15:20.384Z,5.50
2023-05-21T13:16:20.546Z,5.40
2023-05-21T13:17:20.629Z,6.50
2023-05-21T13:18:20.804Z,5.60
2023-05-21T13:19:20.904Z,5.50
2023-05-21T13:20:21.123Z,6.00
2023-05-21T13:21:21.109Z,5.80
2023-05-21T13:22:21.269Z,5.80
2023-05-21T13:23:21.384Z,5.90
2023-05-21T13:24:21.501Z,5.80
2023-05-21T13:25:21.776Z,5.60
2023-05-21T13:26:21.706Z,5.90
2023-05-21T13:27:21.835Z,5.70
2023-05-21T13:28:21.952Z,5.90
2023-05-21T13:29:22.114Z,5.70
2023-05-21T13:30:22.224Z,5.80
2023-05-21T13:31:22.405Z,5.90
2023-05-21T13:32:22.573Z,6.10
2023-05-21T13:33:22.926Z,5.80
2023-05-21T13:34:22.719Z,6.20
2023-05-21T13:35:22.865Z,6.10
2023-05-21T13:36:22.974Z,6.20
2023-05-21T13:37:23.111Z,6.00
2023-05-21T13:38:23.260Z,6.10
2023-05-21T13:39:23.409Z,6.20
2023-05-21T13:40:23.573Z,6.10
2023-05-21T13:41:23.705Z,5.90
2023-05-21T13:42:23.797Z,6.30
2023-05-21T13:43:23.917Z,6.20
2023-05-21T13:44:24.065Z,6.20
2023-05-21T13:45:24.169Z,5.90
2023-05-21T13:46:24.340Z,6.10
2023-05-21T13:47:24.471Z,5.90
2023-05-21T13:48:24.557Z,5.90
2023-05-21T13:49:24.793Z,6.80
2023-05-21T13:50:24.854Z,6.40
2023-05-21T13:51:38.077Z,6.70
2023-05-21T13:52:26.085Z,6.30
2023-05-21T13:53:25.235Z,6.20
2023-05-21T13:54:25.352Z,6.30
2023-05-21T13:55:25.448Z,6.90
2023-05-21T13:56:25.571Z,6.30
2023-05-21T13:57:25.671Z,7.10
2023-05-21T13:58:25.853Z,6.40
2023-05-21T13:59:25.965Z,6.10
2023-05-21T14:00:26.069Z,6.50
2023-05-21T14:01:26.214Z,6.10
2023-05-21T14:02:26.517Z,6.70
2023-05-21T14:03:26.450Z,6.00
2023-05-21T14:04:26.613Z,6.80
2023-05-21T14:05:26.720Z,6.70
2023-05-21T14:06:26.855Z,6.90
2023-05-21T14:07:26.962Z,6.70
2023-05-21T14:08:27.050Z,6.90
2023-05-21T14:09:27.300Z,6.50
2023-05-21T14:10:27.361Z,6.60
2023-05-21T14:11:27.488Z,6.80
2023-05-21T14:12:27.580Z,7.00
2023-05-21T14:13:27.701Z,6.60
2023-05-21T14:14:27.821Z,6.70
2023-05-21T14:15:27.905Z,6.80
2023-05-21T14:16:28.163Z,6.30
2023-05-21T14:17:28.211Z,6.70
2023-05-21T14:18:28.317Z,6.50
2023-05-21T14:19:28.524Z,6.60
2023-05-21T14:20:28.549Z,6.80
2023-05-21T14:21:28.694Z,6.70
2023-05-21T14:22:28.771Z,6.80
2023-05-21T14:23:28.939Z,6.80
2023-05-21T14:24:29.054Z,7.10
2023-05-21T14:25:29.175Z,6.80
2023-05-21T14:26:29.310Z,7.00
2023-05-21T14:27:29.400Z,7.50
2023-05-21T14:28:29.518Z,7.30
2023-05-21T14:29:29.598Z,7.10
2023-05-21T14:30:29.710Z,7.00
2023-05-21T14:31:29.931Z,6.80
2023-05-21T14:32:30.140Z,7.30
2023-05-21T14:33:30.109Z,7.30
2023-05-21T14:34:30.217Z,7.10
2023-05-21T14:35:31.309Z,7.00
2023-05-21T14:36:30.459Z,6.90
2023-05-21T14:37:30.639Z,7.20
2023-05-21T14:38:30.746Z,7.10
2023-05-21T14:39:30.857Z,6.90
2023-05-21T14:40:31.019Z,6.50
2023-05-21T14:41:31.137Z,6.80
2023-05-21T14:42:32.020Z,7.00
2023-05-21T14:43:31.399Z,7.60
2023-05-21T14:44:32.466Z,7.20
2023-05-21T14:45:31.585Z,7.40
2023-05-21T14:46:31.783Z,6.70
2023-05-21T14:47:31.871Z,7.00
2023-05-21T14:48:31.941Z,7.40
2023-05-21T14:49:32.072Z,7.10
2023-05-21T14:50:32.160Z,7.20
2023-05-21T14:51:32.323Z,7.40
2023-05-21T14:52:32.416Z,7.10
2023-05-21T14:53:32.580Z,7.30
2023-05-21T14:54:32.707Z,7.10
2023-05-21T14:55:33.741Z,7.70
2023-05-21T14:56:32.938Z,7.30
2023-05-21T14:57:33.023Z,6.80
2023-05-21T14:58:33.201Z,7.20
2023-05-21T14:59:33.348Z,7.10
2023-05-21T15:00:33.429Z,7.50
2023-05-21T15:01:33.682Z,7.80
2023-05-21T15:02:33.803Z,7.30
2023-05-21T15:03:34.008Z,7.40
2023-05-21T15:04:33.928Z,7.00
2023-05-21T15:05:34.142Z,7.00
2023-05-21T15:06:34.247Z,7.50
2023-05-21T15:07:34.385Z,7.30
2023-05-21T15:08:34.531Z,7.20
2023-05-21T15:09:34.687Z,7.30
2023-05-21T15:10:34.829Z,7.40
2023-05-21T15:11:34.925Z,7.30
2023-05-21T15:12:35.046Z,7.30
2023-05-21T15:13:35.178Z,7.50
2023-05-21T15:14:35.325Z,7.30
2023-05-21T15:15:36.016Z,7.20
2023-05-21T15:16:35.644Z,7.40
2023-05-21T15:17:35.726Z,7.50
2023-05-21T15:18:35.809Z,7.60
2023-05-21T15:19:36.097Z,7.30
2023-05-21T15:20:36.087Z,7.60
2023-05-21T15:21:36.200Z,7.70
2023-05-21T15:22:36.348Z,7.40
2023-05-21T15:23:36.468Z,7.10
2023-05-21T15:24:36.604Z,7.60
2023-05-21T15:25:37.014Z,7.60
2023-05-21T15:26:36.890Z,7.70
2023-05-21T15:27:37.081Z,8.10
2023-05-21T15:28:37.173Z,8.10
2023-05-21T15:29:37.411Z,7.70
2023-05-21T15:30:37.507Z,7.50
2023-05-21T15:31:37.676Z,7.70
2023-05-21T15:32:37.856Z,7.40
2023-05-21T15:33:37.968Z,7.50
2023-05-21T15:34:38.151Z,7.70
2023-05-21T15:35:38.774Z,7.70
2023-05-21T15:36:38.399Z,7.50
2023-05-21T15:37:38.533Z,8.10
2023-05-21T15:38:38.678Z,7.60
2023-05-21T15:39:38.770Z,7.80
2023-05-21T15:40:38.892Z,7.70
2023-05-21T15:41:39.022Z,7.60
2023-05-21T15:42:39.171Z,8.10
2023-05-21T15:43:39.292Z,7.70
2023-05-21T15:44:39.417Z,7.50
2023-05-21T15:45:39.782Z,7.70
2023-05-21T15:46:39.763Z,8.00
2023-05-21T15:47:42.486Z,7.60
2023-05-21T15:48:40.007Z,7.60
2023-05-21T15:49:40.121Z,7.80
2023-05-21T15:50:40.311Z,7.80
2023-05-21T15:51:40.445Z,7.70
2023-05-21T15:52:40.544Z,7.60
2023-05-21T15:53:40.658Z,8.30
2023-05-21T15:54:40.804Z,7.90
2023-05-21T15:55:40.915Z,7.60
2023-05-21T15:56:41.008Z,8.00
2023-05-21T15:57:41.184Z,8.00
2023-05-21T15:58:41.307Z,7.60
2023-05-21T15:59:41.396Z,7.70
2023-05-21T16:00:41.528Z,7.40
2023-05-21T16:01:41.628Z,8.20
2023-05-21T16:02:41.779Z,7.90
2023-05-21T16:03:41.942Z,7.60
2023-05-21T16:04:42.024Z,7.70
2023-05-21T16:05:42.152Z,7.60
2023-05-21T16:06:42.299Z,7.80
2023-05-21T16:07:42.404Z,7.90
2023-05-21T16:08:42.537Z,8.10
2023-05-21T16:09:42.665Z,8.40
2023-05-21T16:10:42.816Z,8.80
2023-05-21T16:11:42.889Z,8.20
2023-05-21T16:12:42.999Z,8.50
2023-05-21T16:13:43.124Z,8.10
2023-05-21T16:14:43.256Z,7.80
2023-05-21T16:15:43.447Z,7.70
2023-05-21T16:16:43.594Z,8.10
2023-05-21T16:28:08.001Z,7.60
2023-05-21T16:29:08.068Z,8.10
2023-05-21T16:30:08.202Z,8.90
2023-05-21T16:31:08.345Z,7.60
2023-05-21T16:32:08.489Z,8.50
2023-05-21T16:33:08.722Z,8.20
2023-05-21T16:34:08.811Z,8.90
2023-05-21T16:35:09.883Z,7.90
2023-05-21T16:36:09.092Z,8.30
2023-05-21T16:37:09.305Z,8.50
2023-05-21T16:38:09.345Z,8.80
2023-05-21T16:39:09.469Z,8.10
2023-05-21T16:40:09.611Z,8.50
2023-05-21T16:41:09.750Z,8.60
2023-05-21T16:42:09.878Z,9.00
2023-05-21T16:43:10.007Z,8.50
2023-05-21T16:44:10.166Z,8.70
2023-05-21T16:45:11.234Z,8.40
2023-05-21T16:46:10.489Z,8.40
2023-05-21T16:47:10.633Z,8.60
2023-05-21T16:48:10.756Z,8.90
2023-05-21T16:49:10.869Z,8.50
2023-05-21T16:50:10.996Z,8.30
2023-05-21T16:51:11.134Z,8.20
2023-05-21T16:52:11.277Z,7.80
2023-05-21T16:53:11.391Z,7.90
2023-05-21T16:54:11.488Z,8.10
2023-05-21T16:55:11.673Z,7.80
2023-05-21T16:56:11.784Z,8.20
2023-05-21T16:57:11.961Z,7.70
2023-05-21T16:58:12.100Z,7.80
2023-05-21T16:59:12.220Z,8.00
2023-05-21T17:00:12.350Z,7.70
2023-05-21T17:01:12.556Z,8.30
2023-05-21T17:02:12.590Z,8.40
2023-05-21T17:03:12.871Z,7.70
2023-05-21T17:04:12.874Z,7.70
2023-05-21T17:05:12.940Z,7.90
2023-05-21T17:06:13.107Z,7.80
2023-05-21T17:07:13.225Z,8.10
2023-05-21T17:08:13.332Z,8.40
2023-05-21T17:09:13.515Z,8.30
2023-05-21T17:10:13.645Z,7.80
2023-05-21T17:11:13.754Z,8.00
2023-05-21T17:12:13.938Z,7.80
2023-05-21T17:13:22.102Z,8.00
2023-05-21T17:14:20.355Z,8.20
2023-05-21T17:15:15.349Z,8.20
2023-05-21T17:16:14.479Z,8.30
2023-05-21T17:17:14.565Z,8.60
2023-05-21T17:18:14.723Z,8.20
2023-05-21T17:19:14.914Z,8.70
2023-05-21T17:20:15.017Z,7.90
2023-05-21T17:21:15.162Z,7.70
2023-05-21T17:22:15.306Z,8.30
2023-05-21T17:23:15.510Z,8.30
2023-05-21T17:24:15.556Z,8.50
2023-05-21T17:25:15.675Z,8.30
2023-05-21T17:26:15.801Z,9.20
2023-05-21T17:27:15.955Z,8.30
2023-05-21T17:28:16.017Z,8.50
2023-05-21T17:29:16.174Z,8.50
2023-05-21T17:30:16.417Z,7.90
2023-05-21T17:31:16.424Z,8.60
2023-05-21T17:32:16.536Z,8.40
2023-05-21T17:33:16.714Z,8.90
2023-05-21T17:34:16.814Z,8.50
2023-05-21T17:35:16.959Z,8.40
2023-05-21T17:36:17.070Z,8.50
2023-05-21T17:37:17.213Z,9.10
2023-05-21T17:38:17.323Z,8.30
2023-05-21T17:39:17.469Z,9.30
2023-05-21T17:40:17.607Z,8.70
2023-05-21T17:41:17.722Z,7.80
2023-05-21T17:42:17.896Z,8.70
2023-05-21T17:43:18.053Z,8.70
2023-05-21T17:44:18.207Z,8.60
2023-05-21T17:45:19.272Z,8.90
2023-05-21T17:46:18.483Z,8.90
2023-05-21T17:47:18.643Z,8.50
2023-05-21T17:48:18.810Z,8.70
2023-05-21T17:49:18.917Z,8.50
2023-05-21T17:50:19.062Z,8.10
2023-05-21T17:51:19.176Z,9.10
2023-05-21T17:52:19.351Z,8.80
2023-05-21T17:53:19.509Z,8.30
2023-05-21T17:54:19.641Z,8.70
2023-05-21T17:55:19.776Z,8.80
2023-05-21T17:56:19.890Z,8.70
2023-05-21T17:57:20.025Z,9.20